createdAt,value
2018-09-30T00:04:17.441Z,57.4
2018-09-30T00:14:19.546Z,57.4
2018-09-30T00:24:21.685Z,57.5
2018-09-30T00:34:23.518Z,57.9
2018-09-30T00:44:24.800Z,58
2018-09-30T00:54:26.816Z,57.9
2018-09-30T01:04:28.718Z,58
2018-09-30T01:14:31.165Z,58
2018-09-30T01:24:32.993Z,57.9
2018-09-30T01:34:36.487Z,57.9
2018-09-30T01:44:38.343Z,57.9
2018-09-30T01:54:40.168Z,57.9
2018-09-30T02:04:42.489Z,57.9
2018-09-30T02:14:46.562Z,58
2018-09-30T02:24:50.932Z,58.2
2018-09-30T02:34:52.770Z,58.3
2018-09-30T02:44:54.973Z,58.3
2018-09-30T02:54:57.071Z,58.3
2018-09-30T03:04:58.762Z,58.3
2018-09-30T03:15:00.203Z,58.3
2018-09-30T03:25:02.307Z,58.2
2018-09-30T03:35:03.856Z,58.2
2018-09-30T03:45:05.789Z,58.2
2018-09-30T03:55:07.506Z,58.4
2018-09-30T04:05:09.204Z,58.5
2018-09-30T04:15:11.516Z,58.6
2018-09-30T04:25:13.497Z,58.6
2018-09-30T04:35:15.163Z,58.4
2018-09-30T04:45:16.929Z,58.4
2018-09-30T04:55:19.335Z,58.3
2018-09-30T05:05:21.035Z,58.2
2018-09-30T05:15:22.734Z,58.2
2018-09-30T05:25:24.737Z,58.1
2018-09-30T05:35:26.578Z,58.1
2018-09-30T05:45:28.667Z,58
2018-09-30T05:55:30.979Z,57.9
2018-09-30T06:05:32.865Z,57.6
2018-09-30T06:15:35.352Z,56.7
2018-09-30T06:25:37.177Z,55.7
2018-09-30T06:35:39.251Z,57.3
2018-09-30T06:45:40.946Z,51.1
2018-09-30T06:55:43.036Z,48.8
2018-09-30T07:05:45.177Z,47.7
2018-09-30T07:15:46.911Z,47.6
2018-09-30T07:16:47.860Z,47.7
2018-09-30T07:25:24.652Z,47.4
2018-09-30T07:28:09.677Z,47.3
2018-09-30T07:33:01.381Z,47.4
2018-09-30T07:41:51.631Z,47.6
2018-09-30T07:43:18.478Z,47.5
2018-09-30T07:48:01.387Z,47.7
2018-09-30T07:49:32.933Z,47.6
2018-09-30T07:53:17.581Z,47.6
2018-09-30T07:56:45.175Z,47.8
2018-09-30T08:06:46.326Z,48.2
2018-09-30T08:07:44.101Z,48.1
2018-09-30T08:09:04.801Z,48.1
2018-09-30T08:10:58.648Z,48.2
2018-09-30T08:17:51.151Z,48.2
2018-09-30T08:19:53.478Z,48.2
2018-09-30T08:24:29.495Z,48.3
2018-09-30T08:34:30.598Z,48.3
2018-09-30T08:44:32.931Z,48.4
2018-09-30T08:54:34.878Z,48.9
2018-09-30T09:04:49.855Z,49
2018-09-30T09:06:19.187Z,49.1
2018-09-30T09:16:20.842Z,49.4
2018-09-30T09:26:22.026Z,49.1
2018-09-30T09:36:23.765Z,49.3
2018-09-30T09:46:25.813Z,49.7
2018-09-30T09:56:27.618Z,49.8
2018-09-30T10:06:29.884Z,49.8
2018-09-30T10:16:31.778Z,49.9
2018-09-30T10:26:33.734Z,50.1
2018-09-30T10:36:35.794Z,50.1
2018-09-30T10:46:37.404Z,50.4
2018-09-30T10:56:38.897Z,50.5
2018-09-30T11:06:40.706Z,50.8
2018-09-30T11:16:42.365Z,50.9
2018-09-30T11:26:43.968Z,51.1
2018-09-30T11:36:45.921Z,51.2
2018-09-30T11:46:48.149Z,51.3
2018-09-30T11:56:50.313Z,51.7
2018-09-30T12:06:51.776Z,51.9
2018-09-30T12:16:53.606Z,52
2018-09-30T12:26:55.501Z,52.3
2018-09-30T12:36:57.375Z,52.5
2018-09-30T12:46:59.383Z,53
2018-09-30T12:57:01.056Z,53.2
2018-09-30T13:07:03.225Z,53.5
2018-09-30T13:17:04.839Z,53.6
2018-09-30T13:27:06.396Z,53.8
2018-09-30T13:37:08.477Z,53.9
2018-09-30T13:47:10.735Z,54.1
2018-09-30T13:57:12.522Z,54.3
2018-09-30T14:07:14.495Z,54.4
2018-09-30T14:17:15.964Z,54.6
2018-09-30T14:37:19.990Z,54.7
2018-09-30T14:47:22.128Z,54.7
2018-09-30T14:57:24.681Z,54.6
2018-09-30T15:07:27.117Z,54.3
2018-09-30T15:17:28.340Z,54.1
2018-09-30T15:27:29.921Z,53.9
2018-09-30T15:37:31.486Z,53.9
2018-09-30T15:47:33.355Z,54.1
2018-09-30T15:57:35.221Z,54
2018-09-30T16:07:37.390Z,54.1
2018-09-30T16:17:39.019Z,54.2
2018-09-30T16:27:40.902Z,54.4
2018-09-30T16:37:42.845Z,54.5
2018-09-30T16:47:44.739Z,54.7
2018-09-30T16:57:46.594Z,54.6
2018-09-30T17:17:50.275Z,54.7
2018-09-30T17:27:52.060Z,54.6
2018-09-30T17:37:53.431Z,54.6
2018-09-30T17:47:55.354Z,54.8
2018-09-30T17:57:57.551Z,54.6
2018-09-30T18:07:59.838Z,54.7
2018-09-30T18:18:02.381Z,55
2018-09-30T18:28:05.317Z,54.9
2018-09-30T18:38:07.078Z,55.1
2018-09-30T18:48:09.991Z,55.3
2018-09-30T18:58:12.011Z,55.5
2018-09-30T19:08:14.326Z,55.5
2018-09-30T19:18:16.463Z,55.6
2018-09-30T19:28:18.528Z,55.6
2018-09-30T19:38:20.841Z,55.7
2018-09-30T19:48:22.615Z,50.8
2018-09-30T19:58:24.269Z,49.3
2018-09-30T20:08:25.966Z,49
2018-09-30T20:18:28.185Z,50.8
2018-09-30T20:28:30.411Z,51.7
2018-09-30T20:38:32.118Z,52.3
2018-09-30T20:48:34.004Z,52.9
2018-09-30T20:58:35.901Z,53.4
2018-09-30T21:08:38.114Z,53.7
2018-09-30T21:18:39.805Z,54
2018-09-30T21:28:41.731Z,54.3
2018-09-30T21:38:43.933Z,54.5
2018-09-30T21:48:46.416Z,54.8
2018-09-30T21:58:49.090Z,55
2018-09-30T22:08:51.365Z,55.1
2018-09-30T22:18:53.117Z,55.3
2018-09-30T22:28:55.173Z,55.4
2018-09-30T22:38:56.946Z,55.6
2018-09-30T22:48:59.210Z,55.7
2018-09-30T22:59:01.111Z,56
2018-09-30T23:09:02.691Z,56.1
2018-09-30T23:19:04.881Z,56.2
2018-09-30T23:29:06.662Z,56.3
2018-09-30T23:39:09.154Z,56.4
2018-09-30T23:49:10.872Z,56.6
2018-09-30T23:59:13.437Z,56.7
